sensor_id;sensor_type;location;lat;lon;timestamp;pressure;altitude;pressure_sealevel;temperature;humidity
42111;BME280;27766;52.174;5.456;2023-03-22T00:01:22;100824.16;;;9.85;100.00
42111;BME280;27766;52.174;5.456;2023-03-22T00:03:50;100812.13;;;9.87;100.00
42111;BME280;27766;52.174;5.456;2023-03-22T00:06:18;100818.19;;;9.89;100.00
42111;BME280;27766;52.174;5.456;2023-03-22T00:08:48;100807.75;;;9.82;100.00
42111;BME280;27766;52.174;5.456;2023-03-22T00:11:17;100803.41;;;9.81;100.00
42111;BME280;27766;52.174;5.456;2023-03-22T00:13:45;100785.09;;;9.71;100.00
42111;BME280;27766;52.174;5.456;2023-03-22T00:16:13;100812.13;;;9.87;100.00
42111;BME280;27766;52.174;5.456;2023-03-22T00:18:41;100800.84;;;9.83;100.00
42111;BME280;27766;52.174;5.456;2023-03-22T00:21:13;100793.91;;;9.80;100.00
42111;BME280;27766;52.174;5.456;2023-03-22T00:23:41;100799.91;;;9.79;100.00
42111;BME280;27766;52.174;5.456;2023-03-22T00:26:09;100793.81;;;9.77;100.00
42111;BME280;27766;52.174;5.456;2023-03-22T00:28:37;100777.34;;;9.71;100.00
42111;BME280;27766;52.174;5.456;2023-03-22T00:31:04;100777.31;;;9.69;100.00
42111;BME280;27766;52.174;5.456;2023-03-22T00:33:34;100781.69;;;9.73;100.00
42111;BME280;27766;52.174;5.456;2023-03-22T00:36:06;100773.94;;;9.73;100.00
42111;BME280;27766;52.174;5.456;2023-03-22T00:38:35;100778.25;;;9.73;100.00
42111;BME280;27766;52.174;5.456;2023-03-22T00:41:14;100780.72;;;9.68;100.00
42111;BME280;27766;52.174;5.456;2023-03-22T00:43:42;100784.16;;;9.67;100.00
42111;BME280;27766;52.174;5.456;2023-03-22T00:46:10;100779.81;;;9.66;100.00
42111;BME280;27766;52.174;5.456;2023-03-22T00:48:38;100763.38;;;9.62;100.00
42111;BME280;27766;52.174;5.456;2023-03-22T00:51:05;100758.94;;;9.55;100.00
42111;BME280;27766;52.174;5.456;2023-03-22T00:53:33;100768.38;;;9.55;100.00
42111;BME280;27766;52.174;5.456;2023-03-22T00:56:03;100771.66;;;9.46;100.00
42111;BME280;27766;52.174;5.456;2023-03-22T00:58:31;100767.22;;;9.40;100.00
42111;BME280;27766;52.174;5.456;2023-03-22T01:00:59;100762.13;;;9.43;100.00
42111;BME280;27766;52.174;5.456;2023-03-22T01:03:26;100759.47;;;9.40;100.00
42111;BME280;27766;52.174;5.456;2023-03-22T01:05:54;100755.22;;;9.42;100.00
42111;BME280;27766;52.174;5.456;2023-03-22T01:08:23;100750.81;;;9.38;100.00
42111;BME280;27766;52.174;5.456;2023-03-22T01:10:51;100741.34;;;9.37;100.00
42111;BME280;27766;52.174;5.456;2023-03-22T01:13:18;100741.47;;;9.43;100.00
42111;BME280;27766;52.174;5.456;2023-03-22T01:15:49;100731.84;;;9.38;100.00
42111;BME280;27766;52.174;5.456;2023-03-22T01:18:17;100724.81;;;9.30;100.00
42111;BME280;27766;52.174;5.456;2023-03-22T01:20:44;100724.81;;;9.30;100.00
42111;BME280;27766;52.174;5.456;2023-03-22T01:23:11;100720.38;;;9.23;100.00
42111;BME280;27766;52.174;5.456;2023-03-22T01:25:38;100723.84;;;9.25;100.00
42111;BME280;27766;52.174;5.456;2023-03-22T01:28:05;100715.19;;;9.22;100.00
42111;BME280;27766;52.174;5.456;2023-03-22T01:30:33;100697.84;;;9.16;100.00
42111;BME280;27766;52.174;5.456;2023-03-22T01:33:00;100703.09;;;9.21;100.00
42111;BME280;27766;52.174;5.456;2023-03-22T01:35:28;100700.56;;;9.24;100.00
42111;BME280;27766;52.174;5.456;2023-03-22T01:37:56;100694.50;;;9.22;100.00
42111;BME280;27766;52.174;5.456;2023-03-22T01:40:25;100698.03;;;9.25;100.00
42111;BME280;27766;52.174;5.456;2023-03-22T01:42:53;100687.69;;;9.25;100.00
42111;BME280;27766;52.174;5.456;2023-03-22T01:45:35;100686.81;;;9.25;100.00
42111;BME280;27766;52.174;5.456;2023-03-22T01:48:47;100675.53;;;9.19;100.00
42111;BME280;27766;52.174;5.456;2023-03-22T01:51:21;100668.72;;;9.25;100.00
42111;BME280;27766;52.174;5.456;2023-03-22T01:54:03;100669.72;;;9.30;100.00
42111;BME280;27766;52.174;5.456;2023-03-22T01:56:35;100661.91;;;9.27;100.00
42111;BME280;27766;52.174;5.456;2023-03-22T01:59:03;100666.31;;;9.32;100.00
42111;BME280;27766;52.174;5.456;2023-03-22T02:01:31;100659.41;;;9.31;100.00
42111;BME280;27766;52.174;5.456;2023-03-22T02:04:12;100640.31;;;9.23;100.00
42111;BME280;27766;52.174;5.456;2023-03-22T02:06:41;100637.84;;;9.29;100.00
42111;BME280;27766;52.174;5.456;2023-03-22T02:09:10;100635.16;;;9.25;100.00
42111;BME280;27766;52.174;5.456;2023-03-22T02:11:43;100621.38;;;9.23;100.00
42111;BME280;27766;52.174;5.456;2023-03-22T02:14:39;100630.06;;;9.28;100.00
42111;BME280;27766;52.174;5.456;2023-03-22T02:34:41;100599.91;;;9.27;100.00
42111;BME280;27766;52.174;5.456;2023-03-22T02:40:38;100580.09;;;9.27;100.00
42111;BME280;27766;52.174;5.456;2023-03-22T02:46:03;100588.81;;;9.31;100.00
42111;BME280;27766;52.174;5.456;2023-03-22T02:48:47;100579.41;;;9.34;100.00
42111;BME280;27766;52.174;5.456;2023-03-22T02:51:21;100559.53;;;9.30;100.00
42111;BME280;27766;52.174;5.456;2023-03-22T02:53:55;100573.34;;;9.32;100.00
42111;BME280;27766;52.174;5.456;2023-03-22T02:56:28;100557.13;;;9.41;100.00
42111;BME280;27766;52.174;5.456;2023-03-22T02:59:01;100552.91;;;9.45;100.00
42111;BME280;27766;52.174;5.456;2023-03-22T03:01:38;100545.03;;;9.37;100.00
42111;BME280;27766;52.174;5.456;2023-03-22T03:04:11;100548.53;;;9.41;100.00
42111;BME280;27766;52.174;5.456;2023-03-22T03:06:43;100551.22;;;9.48;100.00
42111;BME280;27766;52.174;5.456;2023-03-22T03:09:15;100552.97;;;9.49;100.00
42111;BME280;27766;52.174;5.456;2023-03-22T03:11:49;100546.97;;;9.50;100.00
42111;BME280;27766;52.174;5.456;2023-03-22T03:17:10;100544.38;;;9.50;100.00
42111;BME280;27766;52.174;5.456;2023-03-22T03:24:54;100531.31;;;9.41;100.00
42111;BME280;27766;52.174;5.456;2023-03-22T03:27:28;100547.88;;;9.53;100.00
42111;BME280;27766;52.174;5.456;2023-03-22T03:30:03;100551.22;;;9.48;100.00
42111;BME280;27766;52.174;5.456;2023-03-22T03:32:37;100537.38;;;9.45;100.00
42111;BME280;27766;52.174;5.456;2023-03-22T03:35:14;100549.56;;;9.52;100.00
42111;BME280;27766;52.174;5.456;2023-03-22T03:37:52;100545.22;;;9.48;100.00
42111;BME280;27766;52.174;5.456;2023-03-22T03:40:27;100556.47;;;9.52;100.00
42111;BME280;27766;52.174;5.456;2023-03-22T03:43:02;100545.31;;;9.54;100.00
42111;BME280;27766;52.174;5.456;2023-03-22T03:45:30;100543.59;;;9.55;100.00
42111;BME280;27766;52.174;5.456;2023-03-22T03:48:00;100547.91;;;9.54;100.00
42111;BME280;27766;52.174;5.456;2023-03-22T03:50:30;100537.53;;;9.53;100.00
42111;BME280;27766;52.174;5.456;2023-03-22T03:52:57;100543.56;;;9.53;100.00
42111;BME280;27766;52.174;5.456;2023-03-22T03:55:25;100535.91;;;9.58;100.00
42111;BME280;27766;52.174;5.456;2023-03-22T03:57:53;100538.59;;;9.64;100.00
42111;BME280;27766;52.174;5.456;2023-03-22T04:00:20;100527.31;;;9.60;100.00
42111;BME280;27766;52.174;5.456;2023-03-22T04:02:47;100528.25;;;9.65;100.00
42111;BME280;27766;52.174;5.456;2023-03-22T04:05:14;100536.09;;;9.70;100.00
42111;BME280;27766;52.174;5.456;2023-03-22T04:07:41;100538.91;;;9.82;100.00
42111;BME280;27766;52.174;5.456;2023-03-22T04:10:08;100547.50;;;9.83;100.00
42111;BME280;27766;52.174;5.456;2023-03-22T04:12:36;100532.91;;;9.84;100.00
42111;BME280;27766;52.174;5.456;2023-03-22T04:15:03;100536.34;;;9.86;100.00
42111;BME280;27766;52.174;5.456;2023-03-22T04:17:30;100526.81;;;9.81;100.00
42111;BME280;27766;52.174;5.456;2023-03-22T04:19:57;100533.75;;;9.86;100.00
42111;BME280;27766;52.174;5.456;2023-03-22T04:22:25;100536.56;;;9.98;100.00
42111;BME280;27766;52.174;5.456;2023-03-22T04:24:52;100532.09;;;9.88;100.00
42111;BME280;27766;52.174;5.456;2023-03-22T04:27:20;100528.81;;;9.98;100.00
42111;BME280;27766;52.174;5.456;2023-03-22T04:29:48;100526.28;;;10.03;100.00
42111;BME280;27766;52.174;5.456;2023-03-22T04:32:17;100523.63;;;9.98;100.00
42111;BME280;27766;52.174;5.456;2023-03-22T04:34:49;100521.81;;;9.91;100.00
42111;BME280;27766;52.174;5.456;2023-03-22T04:37:18;100515.88;;;9.98;100.00
42111;BME280;27766;52.174;5.456;2023-03-22T04:39:45;100512.38;;;9.94;100.00
42111;BME280;27766;52.174;5.456;2023-03-22T04:42:12;100498.47;;;9.86;100.00
42111;BME280;27766;52.174;5.456;2023-03-22T04:44:39;100505.53;;;9.98;100.00
42111;BME280;27766;52.174;5.456;2023-03-22T04:47:06;100505.47;;;9.93;100.00
42111;BME280;27766;52.174;5.456;2023-03-22T04:49:33;100508.13;;;9.98;100.00
42111;BME280;27766;52.174;5.456;2023-03-22T04:52:01;100507.34;;;10.04;100.00
42111;BME280;27766;52.174;5.456;2023-03-22T04:54:28;100505.63;;;10.03;100.00
42111;BME280;27766;52.174;5.456;2023-03-22T04:56:55;100499.56;;;10.02;100.00
42111;BME280;27766;52.174;5.456;2023-03-22T04:59:22;100503.09;;;10.07;100.00
42111;BME280;27766;52.174;5.456;2023-03-22T05:01:50;100500.38;;;10.00;100.00
42111;BME280;27766;52.174;5.456;2023-03-22T05:04:17;100505.56;;;10.01;100.00
42111;BME280;27766;52.174;5.456;2023-03-22T05:06:45;100486.53;;;9.94;100.00
42111;BME280;27766;52.174;5.456;2023-03-22T05:09:12;100488.28;;;9.97;100.00
42111;BME280;27766;52.174;5.456;2023-03-22T05:11:40;100493.47;;;9.98;100.00
42111;BME280;27766;52.174;5.456;2023-03-22T05:14:08;100489.06;;;9.93;100.00
42111;BME280;27766;52.174;5.456;2023-03-22T05:16:36;100482.06;;;9.84;100.00
42111;BME280;27766;52.174;5.456;2023-03-22T05:19:07;100488.19;;;9.91;100.00
42111;BME280;27766;52.174;5.456;2023-03-22T05:21:41;100495.06;;;9.89;100.00
42111;BME280;27766;52.174;5.456;2023-03-22T05:24:10;100494.13;;;9.84;100.00
42111;BME280;27766;52.174;5.456;2023-03-22T05:26:38;100494.06;;;9.80;100.00
42111;BME280;27766;52.174;5.456;2023-03-22T05:29:09;100488.88;;;9.79;100.00
42111;BME280;27766;52.174;5.456;2023-03-22T05:31:36;100487.97;;;9.77;100.00
42111;BME280;27766;52.174;5.456;2023-03-22T05:34:04;100479.31;;;9.73;100.00
42111;BME280;27766;52.174;5.456;2023-03-22T05:36:31;100476.56;;;9.64;100.00
42111;BME280;27766;52.174;5.456;2023-03-22T05:38:59;100473.16;;;9.66;100.00
42111;BME280;27766;52.174;5.456;2023-03-22T05:41:26;100481.88;;;9.72;100.00
42111;BME280;27766;52.174;5.456;2023-03-22T05:43:53;100480.13;;;9.71;100.00
42111;BME280;27766;52.174;5.456;2023-03-22T05:46:20;100478.38;;;9.70;100.00
42111;BME280;27766;52.174;5.456;2023-03-22T05:48:48;100480.16;;;9.72;100.00
42111;BME280;27766;52.174;5.456;2023-03-22T05:51:15;100480.16;;;9.74;100.00
42111;BME280;27766;52.174;5.456;2023-03-22T05:53:46;100479.31;;;9.75;100.00
42111;BME280;27766;52.174;5.456;2023-03-22T05:56:14;100465.47;;;9.70;100.00
42111;BME280;27766;52.174;5.456;2023-03-22T05:58:41;100467.16;;;9.68;100.00
42111;BME280;27766;52.174;5.456;2023-03-22T06:01:12;100464.47;;;9.63;100.00
42111;BME280;27766;52.174;5.456;2023-03-22T06:03:42;100458.47;;;9.62;100.00
42111;BME280;27766;52.174;5.456;2023-03-22T06:06:09;100467.91;;;9.62;100.00
42111;BME280;27766;52.174;5.456;2023-03-22T06:08:37;100467.13;;;9.64;100.00
42111;BME280;27766;52.174;5.456;2023-03-22T06:11:06;100468.91;;;9.70;100.00
42111;BME280;27766;52.174;5.456;2023-03-22T06:13:33;100474.94;;;9.69;100.00
42111;BME280;27766;52.174;5.456;2023-03-22T06:16:01;100458.63;;;9.75;100.00
42111;BME280;27766;52.174;5.456;2023-03-22T06:18:30;100456.88;;;9.72;100.00
42111;BME280;27766;52.174;5.456;2023-03-22T06:20:57;100467.31;;;9.78;100.00
42111;BME280;27766;52.174;5.456;2023-03-22T06:23:25;100467.28;;;9.77;100.00
42111;BME280;27766;52.174;5.456;2023-03-22T06:25:52;100462.13;;;9.77;100.00
42111;BME280;27766;52.174;5.456;2023-03-22T06:28:19;100470.69;;;9.73;100.00
42111;BME280;27766;52.174;5.456;2023-03-22T06:30:46;100476.78;;;9.76;100.00
42111;BME280;27766;52.174;5.456;2023-03-22T06:33:14;100456.13;;;9.79;100.00
42111;BME280;27766;52.174;5.456;2023-03-22T06:35:41;100473.53;;;9.90;100.00
42111;BME280;27766;52.174;5.456;2023-03-22T06:38:08;100458.94;;;9.96;100.00
42111;BME280;27766;52.174;5.456;2023-03-22T06:40:35;100462.53;;;10.05;100.00
42111;BME280;27766;52.174;5.456;2023-03-22T06:43:02;100463.69;;;10.25;100.00
42111;BME280;27766;52.174;5.456;2023-03-22T06:45:33;100463.78;;;10.33;100.00
42111;BME280;27766;52.174;5.456;2023-03-22T06:48:01;100473.22;;;10.31;100.00
42111;BME280;27766;52.174;5.456;2023-03-22T06:50:29;100470.69;;;10.36;100.00
42111;BME280;27766;52.174;5.456;2023-03-22T06:52:56;100476.81;;;10.38;100.00
42111;BME280;27766;52.174;5.456;2023-03-22T06:55:25;100471.53;;;10.33;100.00
42111;BME280;27766;52.174;5.456;2023-03-22T06:57:52;100480.19;;;10.34;100.00
42111;BME280;27766;52.174;5.456;2023-03-22T07:00:19;100465.63;;;10.40;100.00
42111;BME280;27766;52.174;5.456;2023-03-22T07:02:46;100473.50;;;10.48;100.00
42111;BME280;27766;52.174;5.456;2023-03-22T07:05:13;100481.31;;;10.54;100.00
42111;BME280;27766;52.174;5.456;2023-03-22T07:07:40;100473.63;;;10.62;100.00
42111;BME280;27766;52.174;5.456;2023-03-22T07:10:08;100476.28;;;10.65;100.00
42111;BME280;27766;52.174;5.456;2023-03-22T07:12:35;100472.78;;;10.60;100.00
42111;BME280;27766;52.174;5.456;2023-03-22T07:15:03;100471.06;;;10.62;100.00
42111;BME280;27766;52.174;5.456;2023-03-22T07:17:30;100478.75;;;10.54;100.00
42111;BME280;27766;52.174;5.456;2023-03-22T07:19:57;100469.25;;;10.55;100.00
42111;BME280;27766;52.174;5.456;2023-03-22T07:22:25;100483.03;;;10.54;100.00
42111;BME280;27766;52.174;5.456;2023-03-22T07:24:53;100488.19;;;10.54;100.00
42111;BME280;27766;52.174;5.456;2023-03-22T07:27:24;100481.19;;;10.45;100.00
42111;BME280;27766;52.174;5.456;2023-03-22T07:29:51;100478.59;;;10.43;100.00
42111;BME280;27766;52.174;5.456;2023-03-22T07:32:19;100471.75;;;10.49;100.00
42111;BME280;27766;52.174;5.456;2023-03-22T07:34:46;100458.81;;;10.45;100.00
42111;BME280;27766;52.174;5.456;2023-03-22T07:37:13;100476.22;;;10.59;100.00
42111;BME280;27766;52.174;5.456;2023-03-22T07:39:40;100475.25;;;10.54;100.00
42111;BME280;27766;52.174;5.456;2023-03-22T07:42:08;100457.38;;;10.71;100.00
42111;BME280;27766;52.174;5.456;2023-03-22T07:44:35;100471.13;;;10.67;100.00
42111;BME280;27766;52.174;5.456;2023-03-22T07:47:02;100457.34;;;10.69;100.00
42111;BME280;27766;52.174;5.456;2023-03-22T07:49:30;100470.50;;;10.86;100.00
42111;BME280;27766;52.174;5.456;2023-03-22T07:51:57;100465.22;;;10.79;100.00
42111;BME280;27766;52.174;5.456;2023-03-22T07:54:25;100469.59;;;10.86;100.00
42111;BME280;27766;52.174;5.456;2023-03-22T07:57:00;100474.84;;;10.92;100.00
42111;BME280;27766;52.174;5.456;2023-03-22T07:59:27;100478.25;;;10.88;100.00
42111;BME280;27766;52.174;5.456;2023-03-22T08:01:55;100474.03;;;10.95;100.00
42111;BME280;27766;52.174;5.456;2023-03-22T08:04:22;100475.84;;;11.05;100.00
42111;BME280;27766;52.174;5.456;2023-03-22T08:06:50;100468.97;;;11.05;100.00
42111;BME280;27766;52.174;5.456;2023-03-22T08:09:17;100465.53;;;11.11;100.00
42111;BME280;27766;52.174;5.456;2023-03-22T08:11:44;100471.59;;;11.10;100.00
42111;BME280;27766;52.174;5.456;2023-03-22T08:14:11;100463.88;;;11.16;100.00
42111;BME280;27766;52.174;5.456;2023-03-22T08:16:39;100447.44;;;11.13;100.00
42111;BME280;27766;52.174;5.456;2023-03-22T08:19:07;100471.81;;;11.33;100.00
42111;BME280;27766;52.174;5.456;2023-03-22T08:21:34;100464.06;;;11.36;100.00
42111;BME280;27766;52.174;5.456;2023-03-22T08:24:03;100471.72;;;11.24;100.00
42111;BME280;27766;52.174;5.456;2023-03-22T08:26:30;100469.91;;;11.14;100.00
42111;BME280;27766;52.174;5.456;2023-03-22T08:28:57;100476.78;;;11.12;100.00
42111;BME280;27766;52.174;5.456;2023-03-22T08:31:26;100459.50;;;11.09;100.00
42111;BME280;27766;52.174;5.456;2023-03-22T08:33:53;100465.59;;;11.14;100.00
42111;BME280;27766;52.174;5.456;2023-03-22T08:36:21;100462.94;;;11.11;100.00
42111;BME280;27766;52.174;5.456;2023-03-22T08:38:51;100464.69;;;11.12;100.00
42111;BME280;27766;52.174;5.456;2023-03-22T08:41:18;100468.16;;;11.13;100.00
42111;BME280;27766;52.174;5.456;2023-03-22T08:43:46;100469.91;;;11.15;100.00
42111;BME280;27766;52.174;5.456;2023-03-22T08:46:13;100459.66;;;11.26;100.00
42111;BME280;27766;52.174;5.456;2023-03-22T08:48:40;100460.53;;;11.28;100.00
42111;BME280;27766;52.174;5.456;2023-03-22T08:51:08;100450.13;;;11.23;100.00
42111;BME280;27766;52.174;5.456;2023-03-22T08:53:35;100448.34;;;11.19;100.00
42111;BME280;27766;52.174;5.456;2023-03-22T08:56:06;100449.41;;;11.42;100.00
42111;BME280;27766;52.174;5.456;2023-03-22T08:58:33;100463.19;;;11.33;100.00
42111;BME280;27766;52.174;5.456;2023-03-22T09:01:01;100458.03;;;11.40;100.00
42111;BME280;27766;52.174;5.456;2023-03-22T09:03:29;100460.56;;;11.31;100.00
42111;BME280;27766;52.174;5.456;2023-03-22T09:05:56;100465.78;;;11.33;100.00
42111;BME280;27766;52.174;5.456;2023-03-22T09:08:23;100461.44;;;11.33;100.00
42111;BME280;27766;52.174;5.456;2023-03-22T09:10:50;100464.03;;;11.32;100.00
42111;BME280;27766;52.174;5.456;2023-03-22T09:13:18;100464.78;;;11.23;100.00
42111;BME280;27766;52.174;5.456;2023-03-22T09:15:46;100459.59;;;11.23;100.00
42111;BME280;27766;52.174;5.456;2023-03-22T09:18:14;100460.44;;;11.20;100.00
42111;BME280;27766;52.174;5.456;2023-03-22T09:20:43;100461.44;;;11.32;100.00
42111;BME280;27766;52.174;5.456;2023-03-22T09:23:11;100471.81;;;11.32;100.00
42111;BME280;27766;52.174;5.456;2023-03-22T09:25:42;100456.13;;;11.19;100.00
42111;BME280;27766;52.174;5.456;2023-03-22T09:28:09;100470.81;;;11.20;100.00
42111;BME280;27766;52.174;5.456;2023-03-22T09:30:36;100473.44;;;11.23;100.00
42111;BME280;27766;52.174;5.456;2023-03-22T09:33:04;100477.78;;;11.24;100.00
42111;BME280;27766;52.174;5.456;2023-03-22T09:35:33;100478.59;;;11.19;100.00
42111;BME280;27766;52.174;5.456;2023-03-22T09:38:00;100462.19;;;11.21;100.00
42111;BME280;27766;52.174;5.456;2023-03-22T09:40:30;100466.47;;;11.15;100.00
42111;BME280;27766;52.174;5.456;2023-03-22T09:43:04;100468.91;;;10.99;100.00
42111;BME280;27766;52.174;5.456;2023-03-22T09:45:36;100467.22;;;11.06;100.00
42111;BME280;27766;52.174;5.456;2023-03-22T09:48:38;100461.91;;;10.92;100.00
42111;BME280;27766;52.174;5.456;2023-03-22T09:51:21;100478.97;;;10.74;100.00
42111;BME280;27766;52.174;5.456;2023-03-22T09:53:49;100469.44;;;10.70;100.00
42111;BME280;27766;52.174;5.456;2023-03-22T09:56:21;100452.91;;;10.57;100.00
42111;BME280;27766;52.174;5.456;2023-03-22T10:06:23;100453.94;;;10.75;100.00
42111;BME280;27766;52.174;5.456;2023-03-22T10:11:43;100450.34;;;10.62;100.00
42111;BME280;27766;52.174;5.456;2023-03-22T10:14:23;100444.25;;;10.55;100.00
42111;BME280;27766;52.174;5.456;2023-03-22T10:16:55;100454.72;;;10.66;100.00
42111;BME280;27766;52.174;5.456;2023-03-22T10:19:28;100444.31;;;10.63;100.00
42111;BME280;27766;52.174;5.456;2023-03-22T10:21:58;100456.34;;;10.56;100.00
42111;BME280;27766;52.174;5.456;2023-03-22T10:24:34;100447.69;;;10.54;100.00
42111;BME280;27766;52.174;5.456;2023-03-22T10:27:02;100452.88;;;10.54;100.00
42111;BME280;27766;52.174;5.456;2023-03-22T10:29:37;100451.03;;;10.45;100.00
42111;BME280;27766;52.174;5.456;2023-03-22T10:32:50;100450.16;;;10.43;100.00
42111;BME280;27766;52.174;5.456;2023-03-22T10:35:24;100441.50;;;10.41;100.00
42111;BME280;27766;52.174;5.456;2023-03-22T10:37:54;100451.06;;;10.50;100.00
42111;BME280;27766;52.174;5.456;2023-03-22T10:40:27;100446.00;;;10.59;100.00
42111;BME280;27766;52.174;5.456;2023-03-22T10:43:00;100444.31;;;10.60;100.00
42111;BME280;27766;52.174;5.456;2023-03-22T10:45:32;100455.38;;;10.50;100.00
42111;BME280;27766;52.174;5.456;2023-03-22T10:48:23;100453.72;;;10.53;100.00
42111;BME280;27766;52.174;5.456;2023-03-22T10:50:52;100458.09;;;10.57;100.00
42111;BME280;27766;52.174;5.456;2023-03-22T10:53:27;100455.31;;;10.43;100.00
42111;BME280;27766;52.174;5.456;2023-03-22T10:55:56;100453.63;;;10.45;100.00
42111;BME280;27766;52.174;5.456;2023-03-22T10:58:32;100458.81;;;10.49;100.00
42111;BME280;27766;52.174;5.456;2023-03-22T11:01:08;100465.69;;;10.45;100.00
42111;BME280;27766;52.174;5.456;2023-03-22T11:03:47;100455.34;;;10.47;100.00
42111;BME280;27766;52.174;5.456;2023-03-22T11:06:18;100434.03;;;10.68;100.00
42111;BME280;27766;52.174;5.456;2023-03-22T11:08:51;100429.75;;;10.70;100.00
42111;BME280;27766;52.174;5.456;2023-03-22T11:11:23;100430.59;;;10.70;100.00
42111;BME280;27766;52.174;5.456;2023-03-22T11:14:04;100421.03;;;10.60;100.00
42111;BME280;27766;52.174;5.456;2023-03-22T11:19:15;100415.13;;;10.75;100.00
42111;BME280;27766;52.174;5.456;2023-03-22T11:21:45;100433.91;;;10.58;100.00
42111;BME280;27766;52.174;5.456;2023-03-22T11:24:13;100421.88;;;10.59;100.00
42111;BME280;27766;52.174;5.456;2023-03-22T11:26:41;100421.94;;;10.67;100.00
42111;BME280;27766;52.174;5.456;2023-03-22T11:29:14;100425.47;;;10.72;100.00
42111;BME280;27766;52.174;5.456;2023-03-22T11:31:52;100428.13;;;10.80;100.00
42111;BME280;27766;52.174;5.456;2023-03-22T11:34:27;100432.50;;;10.87;100.00
42111;BME280;27766;52.174;5.456;2023-03-22T11:36:59;100444.56;;;10.83;100.00
42111;BME280;27766;52.174;5.456;2023-03-22T11:39:28;100423.84;;;10.83;100.00
42111;BME280;27766;52.174;5.456;2023-03-22T11:42:01;100425.56;;;10.83;100.00
42111;BME280;27766;52.174;5.456;2023-03-22T11:44:33;100431.59;;;10.80;100.00
42111;BME280;27766;52.174;5.456;2023-03-22T11:47:02;100432.50;;;10.87;100.00
42111;BME280;27766;52.174;5.456;2023-03-22T11:49:45;100439.53;;;10.96;100.00
42111;BME280;27766;52.174;5.456;2023-03-22T11:52:22;100439.59;;;11.05;100.00
42111;BME280;27766;52.174;5.456;2023-03-22T11:54:51;100443.88;;;11.01;100.00
42111;BME280;27766;52.174;5.456;2023-03-22T11:57:25;100451.69;;;11.03;100.00
42111;BME280;27766;52.174;5.456;2023-03-22T11:59:57;100451.53;;;10.92;100.00
42111;BME280;27766;52.174;5.456;2023-03-22T12:02:28;100457.66;;;10.99;100.00
42111;BME280;27766;52.174;5.456;2023-03-22T12:05:02;100457.56;;;10.89;100.00
42111;BME280;27766;52.174;5.456;2023-03-22T12:07:33;100458.44;;;10.91;100.00
42111;BME280;27766;52.174;5.456;2023-03-22T12:10:21;100473.88;;;10.79;100.00
42111;BME280;27766;52.174;5.456;2023-03-22T12:13:09;100467.06;;;10.87;100.00
42111;BME280;27766;52.174;5.456;2023-03-22T12:15:42;100454.13;;;10.89;100.00
42111;BME280;27766;52.174;5.456;2023-03-22T12:21:02;100446.34;;;10.87;100.00
42111;BME280;27766;52.174;5.456;2023-03-22T12:23:31;100439.56;;;11.02;100.00
42111;BME280;27766;52.174;5.456;2023-03-22T12:26:19;100449.09;;;11.04;100.00
42111;BME280;27766;52.174;5.456;2023-03-22T12:28:57;100450.84;;;11.05;100.00
42111;BME280;27766;52.174;5.456;2023-03-22T12:31:34;100450.78;;;11.04;100.00
42111;BME280;27766;52.174;5.456;2023-03-22T12:34:13;100451.69;;;11.06;100.00
42111;BME280;27766;52.174;5.456;2023-03-22T12:37:01;100449.94;;;11.03;100.00
42111;BME280;27766;52.174;5.456;2023-03-22T12:39:37;100457.75;;;11.09;100.00
42111;BME280;27766;52.174;5.456;2023-03-22T12:42:39;100454.31;;;11.11;100.00
42111;BME280;27766;52.174;5.456;2023-03-22T12:45:24;100441.31;;;11.03;100.00
42111;BME280;27766;52.174;5.456;2023-03-22T12:47:59;100440.56;;;11.18;100.00
42111;BME280;27766;52.174;5.456;2023-03-22T12:50:36;100433.72;;;11.23;100.00
42111;BME280;27766;52.174;5.456;2023-03-22T12:53:04;100433.72;;;11.23;100.00
42111;BME280;27766;52.174;5.456;2023-03-22T12:55:37;100434.50;;;11.16;100.00
42111;BME280;27766;52.174;5.456;2023-03-22T12:58:07;100423.25;;;11.11;100.00
42111;BME280;27766;52.174;5.456;2023-03-22T13:00:41;100431.03;;;11.12;100.00
42111;BME280;27766;52.174;5.456;2023-03-22T13:05:44;100407.66;;;11.06;100.00
42111;BME280;27766;52.174;5.456;2023-03-22T13:08:12;100433.75;;;11.24;100.00
42111;BME280;27766;52.174;5.456;2023-03-22T13:10:48;100441.56;;;11.32;100.00
42111;BME280;27766;52.174;5.456;2023-03-22T13:21:18;100441.38;;;11.12;100.00
42111;BME280;27766;52.174;5.456;2023-03-22T13:26:49;100438.00;;;11.18;100.00
42111;BME280;27766;52.174;5.456;2023-03-22T13:29:22;100450.97;;;11.22;100.00
42111;BME280;27766;52.174;5.456;2023-03-22T13:37:15;100440.72;;;11.33;100.00
42111;BME280;27766;52.174;5.456;2023-03-22T13:39:49;100434.69;;;11.33;100.00
42111;BME280;27766;52.174;5.456;2023-03-22T13:42:20;100426.91;;;11.33;100.00
42111;BME280;27766;52.174;5.456;2023-03-22T13:44:52;100446.88;;;11.46;100.00
42111;BME280;27766;52.174;5.456;2023-03-22T13:50:06;100434.69;;;11.34;100.00
42111;BME280;27766;52.174;5.456;2023-03-22T13:52:50;100433.81;;;11.34;100.00
42111;BME280;27766;52.174;5.456;2023-03-22T14:01:12;100413.06;;;11.32;100.00
42111;BME280;27766;52.174;5.456;2023-03-22T14:03:41;100428.66;;;11.35;100.00
42111;BME280;27766;52.174;5.456;2023-03-22T14:06:18;100436.41;;;11.37;100.00
42111;BME280;27766;52.174;5.456;2023-03-22T14:08:49;100423.50;;;11.42;100.00
42111;BME280;27766;52.174;5.456;2023-03-22T14:14:12;100420.09;;;11.49;100.00
42111;BME280;27766;52.174;5.456;2023-03-22T14:16:48;100420.16;;;11.52;100.00
42111;BME280;27766;52.174;5.456;2023-03-22T14:19:19;100402.84;;;11.54;100.00
42111;BME280;27766;52.174;5.456;2023-03-22T14:21:53;100400.34;;;11.60;100.00